Time,TemperatureF,DewpointF,PressureIn,WindDirection,WindDirectionDegrees,WindSpeedMPH,WindSpeedGustMPH,Humidity,HourlyPrecipIn,Conditions,Clouds,dailyrainin,SoftwareType,DateUTC
2013-09-09 00:09:00,76.5,67.0,30.05,ENE,60,0.0,2.0,73,0.00,,,0.00,weatherlink.com 1.10,2013-09-09 04:09:00,
2013-09-09 00:24:00,76.3,67.0,30.05,ENE,75,0.0,2.0,73,0.00,,,0.00,weatherlink.com 1.10,2013-09-09 04:24:00,
2013-09-09 00:39:00,76.5,67.0,30.06,ENE,78,0.0,2.0,73,0.00,,,0.00,weatherlink.com 1.10,2013-09-09 04:39:00,
2013-09-09 00:54:00,75.2,68.0,30.06,ENE,60,0.0,2.0,78,0.00,,,0.00,weatherlink.com 1.10,2013-09-09 04:54:00,
2013-09-09 01:09:00,75.1,67.0,30.06,East,91,1.0,3.0,77,0.00,,,0.00,weatherlink.com 1.10,2013-09-09 05:09:00,
2013-09-09 01:24:00,73.8,68.0,30.06,East,89,1.0,3.0,81,0.00,,,0.00,weatherlink.com 1.10,2013-09-09 05:24:00,
2013-09-09 01:39:00,73.3,68.0,30.07,East,89,0.0,1.0,82,0.00,,,0.00,weatherlink.com 1.10,2013-09-09 05:39:00,
2013-09-09 01:54:00,71.8,68.0,30.07,North,3,1.0,2.0,87,0.00,,,0.00,weatherlink.com 1.10,2013-09-09 05:54:00,
2013-09-09 02:09:00,70.7,67.0,30.07,NNE,27,2.0,4.0,89,0.00,,,0.00,weatherlink.com 1.10,2013-09-09 06:09:00,
2013-09-09 02:24:00,71.1,67.0,30.07,NE,39,4.0,5.0,88,0.00,,,0.00,weatherlink.com 1.10,2013-09-09 06:24:00,
2013-09-09 02:39:00,71.9,68.0,30.07,ENE,67,4.0,5.0,87,0.00,,,0.00,weatherlink.com 1.10,2013-09-09 06:39:00,
2013-09-09 02:54:00,72.3,68.0,30.07,ENE,65,1.0,5.0,87,0.00,,,0.00,weatherlink.com 1.10,2013-09-09 06:54:00,
2013-09-09 03:09:00,72.2,68.0,30.06,East,86,0.0,3.0,87,0.00,,,0.00,weatherlink.com 1.10,2013-09-09 07:09:00,
2013-09-09 03:24:00,71.6,68.0,30.06,East,84,2.0,4.0,88,0.00,,,0.00,weatherlink.com 1.10,2013-09-09 07:24:00,
2013-09-09 03:39:00,70.5,68.0,30.07,ESE,108,1.0,4.0,90,0.00,,,0.00,weatherlink.com 1.10,2013-09-09 07:39:00,
2013-09-09 03:54:00,69.2,67.0,30.07,ESE,117,4.0,5.0,92,0.00,,,0.00,weatherlink.com 1.10,2013-09-09 07:54:00,
2013-09-09 04:09:00,69.0,67.0,30.07,East,91,3.0,5.0,93,0.00,,,0.00,weatherlink.com 1.10,2013-09-09 08:09:00,
2013-09-09 04:25:00,69.1,67.0,30.07,East,89,0.0,5.0,92,0.00,,,0.00,weatherlink.com 1.10,2013-09-09 08:25:00,
2013-09-09 04:40:00,69.4,67.0,30.07,ENE,59,2.0,4.0,91,0.00,,,0.00,weatherlink.com 1.10,2013-09-09 08:40:00,
2013-09-09 04:55:00,68.7,66.0,30.07,East,81,4.0,7.0,92,0.00,,,0.00,weatherlink.com 1.10,2013-09-09 08:55:00,
2013-09-09 05:10:00,68.7,66.0,30.07,NE,53,3.0,4.0,91,0.00,,,0.00,weatherlink.com 1.10,2013-09-09 09:10:00,
2013-09-09 05:25:00,69.0,66.0,30.07,East,81,0.0,4.0,89,0.00,,,0.00,weatherlink.com 1.10,2013-09-09 09:25:00,
2013-09-09 05:40:00,68.7,66.0,30.08,East,98,3.0,5.0,90,0.00,,,0.00,weatherlink.com 1.10,2013-09-09 09:40:00,
2013-09-09 05:55:00,68.7,66.0,30.08,ENE,58,1.0,4.0,91,0.00,,,0.00,weatherlink.com 1.10,2013-09-09 09:55:00,
2013-09-09 06:10:00,68.9,66.0,30.08,East,84,3.0,4.0,90,0.00,,,0.00,weatherlink.com 1.10,2013-09-09 10:10:00,
2013-09-09 06:25:00,68.8,66.0,30.08,East,79,3.0,4.0,91,0.00,,,0.00,weatherlink.com 1.10,2013-09-09 10:25:00,
2013-09-09 06:40:00,68.5,66.0,30.08,ENE,77,0.0,4.0,92,0.00,,,0.00,weatherlink.com 1.10,2013-09-09 10:40:00,
2013-09-09 06:55:00,68.5,67.0,30.09,East,96,5.0,5.0,93,0.00,,,0.00,weatherlink.com 1.10,2013-09-09 10:55:00,
2013-09-09 07:10:00,68.2,67.0,30.09,East,89,5.0,6.0,94,0.00,,,0.00,weatherlink.com 1.10,2013-09-09 11:10:00,
2013-09-09 07:25:00,68.3,67.0,30.09,NE,46,1.0,5.0,95,0.00,,,0.00,weatherlink.com 1.10,2013-09-09 11:25:00,
2013-09-09 07:40:00,67.9,67.0,30.10,NE,44,0.0,3.0,95,0.00,,,0.00,weatherlink.com 1.10,2013-09-09 11:40:00,
2013-09-09 07:55:00,68.3,67.0,30.11,NE,54,0.0,3.0,95,0.00,,,0.00,weatherlink.com 1.10,2013-09-09 11:55:00,
2013-09-09 08:10:00,70.0,68.0,30.11,East,80,0.0,3.0,92,0.00,,,0.00,weatherlink.com 1.10,2013-09-09 12:10:00,
2013-09-09 08:25:00,70.5,68.0,30.11,ESE,119,1.0,4.0,91,0.00,,,0.00,weatherlink.com 1.10,2013-09-09 12:25:00,
2013-09-09 08:40:00,70.7,68.0,30.11,SE,127,1.0,5.0,91,0.00,,,0.00,weatherlink.com 1.10,2013-09-09 12:40:00,
2013-09-09 08:55:00,71.8,69.0,30.11,East,98,2.0,5.0,89,0.00,,,0.00,weatherlink.com 1.10,2013-09-09 12:55:00,
2013-09-09 09:10:00,72.2,69.0,30.11,ESE,110,7.0,7.0,89,0.00,,,0.00,weatherlink.com 1.10,2013-09-09 13:10:00,
2013-09-09 09:25:00,73.4,69.0,30.11,ENE,57,3.0,6.0,87,0.00,,,0.00,weatherlink.com 1.10,2013-09-09 13:25:00,
2013-09-09 09:40:00,74.2,70.0,30.12,SE,131,3.0,7.0,85,0.00,,,0.00,weatherlink.com 1.10,2013-09-09 13:40:00,
2013-09-09 09:55:00,75.1,70.0,30.12,SE,139,4.0,7.0,84,0.00,,,0.00,weatherlink.com 1.10,2013-09-09 13:55:00,
2013-09-09 10:10:00,74.2,70.0,30.13,SE,136,3.0,7.0,85,0.00,,,0.00,weatherlink.com 1.10,2013-09-09 14:10:00,
2013-09-09 10:26:00,75.2,69.0,30.13,ESE,104,2.0,8.0,81,0.00,,,0.00,weatherlink.com 1.10,2013-09-09 14:26:00,
2013-09-09 10:40:00,78.4,70.0,30.13,East,88,1.0,5.0,76,0.00,,,0.00,weatherlink.com 1.10,2013-09-09 14:40:00,
2013-09-09 10:55:00,79.0,70.0,30.14,ESE,114,3.0,7.0,74,0.00,,,0.00,weatherlink.com 1.10,2013-09-09 14:55:00,
2013-09-09 11:10:00,81.0,70.0,30.14,ENE,61,1.0,5.0,70,0.00,,,0.00,weatherlink.com 1.10,2013-09-09 15:10:00,
2013-09-09 11:25:00,81.5,70.0,30.14,ENE,75,4.0,6.0,68,0.00,,,0.00,weatherlink.com 1.10,2013-09-09 15:25:00,
2013-09-09 11:40:00,82.8,71.0,30.14,SW,233,1.0,6.0,67,0.00,,,0.00,weatherlink.com 1.10,2013-09-09 15:40:00,
2013-09-09 11:55:00,83.6,71.0,30.14,SE,132,5.0,9.0,65,0.00,,,0.00,weatherlink.com 1.10,2013-09-09 15:55:00,
2013-09-09 12:10:00,84.0,70.0,30.14,South,174,2.0,6.0,63,0.00,,,0.00,weatherlink.com 1.10,2013-09-09 16:10:00,
2013-09-09 12:25:00,84.6,67.0,30.13,SW,236,1.0,6.0,56,0.00,,,0.00,weatherlink.com 1.10,2013-09-09 16:25:00,
2013-09-09 12:40:00,87.3,69.0,30.13,South,181,5.0,6.0,54,0.00,,,0.00,weatherlink.com 1.10,2013-09-09 16:40:00,
2013-09-09 12:55:00,85.3,68.0,30.13,ESE,108,5.0,10.0,56,0.00,,,0.00,weatherlink.com 1.10,2013-09-09 16:55:00,
2013-09-09 13:10:00,85.8,68.0,30.12,South,176,5.0,11.0,56,0.00,,,0.00,weatherlink.com 1.10,2013-09-09 17:10:00,
2013-09-09 13:26:00,86.8,70.0,30.12,ESE,113,5.0,11.0,57,0.00,,,0.00,weatherlink.com 1.10,2013-09-09 17:26:00,
2013-09-09 13:41:00,88.6,70.0,30.12,SE,126,3.0,5.0,55,0.00,,,0.00,weatherlink.com 1.10,2013-09-09 17:41:00,
2013-09-09 13:56:00,87.4,68.0,30.12,WSW,240,6.0,8.0,52,0.00,,,0.00,weatherlink.com 1.10,2013-09-09 17:56:00,
2013-09-09 14:11:00,89.0,67.0,30.12,WSW,237,5.0,10.0,48,0.00,,,0.00,weatherlink.com 1.10,2013-09-09 18:11:00,
2013-09-09 14:26:00,86.1,65.0,30.12,WNW,283,2.0,8.0,50,0.00,,,0.00,weatherlink.com 1.10,2013-09-09 18:26:00,
2013-09-09 14:41:00,88.2,67.0,30.11,NW,304,1.0,6.0,49,0.00,,,0.00,weatherlink.com 1.10,2013-09-09 18:41:00,
2013-09-09 14:56:00,87.2,66.0,30.11,ESE,112,9.0,9.0,50,0.00,,,0.00,weatherlink.com 1.10,2013-09-09 18:56:00,
2013-09-09 15:11:00,87.5,67.0,30.11,SSW,192,1.0,6.0,50,0.00,,,0.00,weatherlink.com 1.10,2013-09-09 19:11:00,
2013-09-09 15:26:00,88.6,66.0,30.10,East,93,3.0,9.0,47,0.00,,,0.00,weatherlink.com 1.10,2013-09-09 19:26:00,
2013-09-09 15:41:00,89.2,65.0,30.09,WNW,285,1.0,7.0,44,0.00,,,0.00,weatherlink.com 1.10,2013-09-09 19:41:00,
2013-09-09 15:56:00,88.2,65.0,30.09,NE,34,0.0,10.0,47,0.00,,,0.00,weatherlink.com 1.10,2013-09-09 19:56:00,
2013-09-09 16:11:00,89.0,66.0,30.09,SSE,148,5.0,7.0,47,0.00,,,0.00,weatherlink.com 1.10,2013-09-09 20:11:00,
2013-09-09 16:26:00,88.1,66.0,30.08,ESE,115,5.0,9.0,48,0.00,,,0.00,weatherlink.com 1.10,2013-09-09 20:26:00,
2013-09-09 16:41:00,88.9,66.0,30.08,East,88,4.0,6.0,46,0.00,,,0.00,weatherlink.com 1.10,2013-09-09 20:41:00,
2013-09-09 17:11:00,88.8,65.0,30.07,SW,221,2.0,7.0,45,0.00,,,0.00,weatherlink.com 1.10,2013-09-09 21:11:00,
2013-09-09 17:26:00,88.8,65.0,30.08,East,94,7.0,9.0,45,0.00,,,0.00,weatherlink.com 1.10,2013-09-09 21:26:00,
2013-09-09 17:41:00,87.5,64.0,30.08,ESE,104,4.0,10.0,46,0.00,,,0.00,weatherlink.com 1.10,2013-09-09 21:41:00,
2013-09-09 17:56:00,87.6,65.0,30.07,SSE,162,1.0,8.0,47,0.00,,,0.00,weatherlink.com 1.10,2013-09-09 21:56:00,
2013-09-09 18:11:00,88.0,64.0,30.07,SE,146,1.0,5.0,45,0.00,,,0.00,weatherlink.com 1.10,2013-09-09 22:11:00,
2013-09-09 18:26:00,86.2,65.0,30.07,SE,134,1.0,5.0,49,0.00,,,0.00,weatherlink.com 1.10,2013-09-09 22:26:00,
2013-09-09 18:41:00,85.4,66.0,30.08,SSE,156,3.0,7.0,52,0.00,,,0.00,weatherlink.com 1.10,2013-09-09 22:41:00,
2013-09-09 18:56:00,85.4,67.0,30.08,SSE,165,0.0,5.0,54,0.00,,,0.00,weatherlink.com 1.10,2013-09-09 22:56:00,
2013-09-09 19:11:00,85.1,67.0,30.08,WSW,243,3.0,7.0,55,0.00,,,0.00,weatherlink.com 1.10,2013-09-09 23:11:00,
2013-09-09 19:26:00,84.6,67.0,30.08,South,189,2.0,4.0,56,0.00,,,0.00,weatherlink.com 1.10,2013-09-09 23:26:00,
2013-09-09 19:41:00,83.9,67.0,30.08,SSW,207,1.0,3.0,58,0.00,,,0.00,weatherlink.com 1.10,2013-09-09 23:41:00,
2013-09-09 19:56:00,83.4,68.0,30.09,SSW,210,4.0,4.0,60,0.00,,,0.00,weatherlink.com 1.10,2013-09-09 23:56:00,
2013-09-09 20:11:00,82.2,69.0,30.10,SSW,212,11.0,15.0,64,0.00,,,0.00,weatherlink.com 1.10,2013-09-10 00:11:00,
2013-09-09 20:26:00,80.5,69.0,30.11,SW,218,8.0,12.0,69,0.00,,,0.00,weatherlink.com 1.10,2013-09-10 00:26:00,
2013-09-09 20:41:00,79.3,69.0,30.11,SSE,160,7.0,10.0,70,0.00,,,0.00,weatherlink.com 1.10,2013-09-10 00:41:00,
2013-09-09 20:56:00,78.3,69.0,30.11,ESE,117,3.0,11.0,72,0.00,,,0.00,weatherlink.com 1.10,2013-09-10 00:56:00,
2013-09-09 21:11:00,77.8,69.0,30.12,SE,136,2.0,10.0,73,0.00,,,0.00,weatherlink.com 1.10,2013-09-10 01:11:00,
2013-09-09 21:26:00,77.3,68.0,30.12,SSW,210,3.0,6.0,74,0.00,,,0.00,weatherlink.com 1.10,2013-09-10 01:26:00,
2013-09-09 21:41:00,77.1,68.0,30.13,SW,233,7.0,9.0,73,0.00,,,0.00,weatherlink.com 1.10,2013-09-10 01:41:00,
2013-09-09 21:56:00,77.5,68.0,30.13,WSW,257,5.0,10.0,72,0.00,,,0.00,weatherlink.com 1.10,2013-09-10 01:56:00,
2013-09-09 22:11:00,78.3,67.0,30.13,WNW,290,4.0,11.0,68,0.00,,,0.00,weatherlink.com 1.10,2013-09-10 02:11:00,
2013-09-09 22:26:00,78.0,67.0,30.13,SW,221,2.0,8.0,70,0.00,,,0.00,weatherlink.com 1.10,2013-09-10 02:26:00,
2013-09-09 22:41:00,78.0,67.0,30.13,South,170,2.0,9.0,70,0.00,,,0.00,weatherlink.com 1.10,2013-09-10 02:41:00,
2013-09-09 22:56:00,77.9,67.0,30.14,SW,216,6.0,11.0,70,0.00,,,0.00,weatherlink.com 1.10,2013-09-10 02:56:00,
2013-09-09 23:11:00,77.5,67.0,30.14,West,271,4.0,11.0,71,0.00,,,0.00,weatherlink.com 1.10,2013-09-10 03:11:00,
2013-09-09 23:26:00,77.9,67.0,30.14,WSW,240,4.0,10.0,69,0.00,,,0.00,weatherlink.com 1.10,2013-09-10 03:26:00,
2013-09-09 23:41:00,77.7,67.0,30.14,West,263,5.0,11.0,70,0.00,,,0.00,weatherlink.com 1.10,2013-09-10 03:41:00,
2013-09-09 23:56:00,77.4,67.0,30.15,West,269,3.0,7.0,70,0.00,,,0.00,weatherlink.com 1.10,2013-09-10 03:56:00,